createdAt,value
2022-11-13T00:00:43.058Z,0.00
2022-11-13T00:01:43.073Z,0.00
2022-11-13T00:02:43.102Z,0.00
2022-11-13T00:03:43.029Z,0.00
2022-11-13T00:04:43.048Z,0.00
2022-11-13T00:05:43.096Z,0.00
2022-11-13T00:06:43.047Z,0.00
2022-11-13T00:07:43.049Z,0.00
2022-11-13T00:08:42.987Z,0.00
2022-11-13T00:09:43.000Z,0.00
2022-11-13T00:10:42.974Z,0.00
2022-11-13T00:11:42.975Z,0.00
2022-11-13T00:12:42.971Z,0.00
2022-11-13T00:13:42.985Z,0.00
2022-11-13T00:14:42.965Z,0.00
2022-11-13T00:15:42.966Z,0.00
2022-11-13T00:16:42.935Z,0.00
2022-11-13T00:17:42.929Z,0.00
2022-11-13T00:18:42.915Z,0.00
2022-11-13T00:19:42.911Z,0.00
2022-11-13T00:20:42.924Z,0.00
2022-11-13T00:21:42.975Z,0.00
2022-11-13T00:22:42.893Z,0.00
2022-11-13T00:23:42.886Z,0.00
2022-11-13T00:24:42.876Z,0.00
2022-11-13T00:25:42.888Z,0.00
2022-11-13T00:26:42.872Z,0.00
2022-11-13T00:27:42.858Z,0.00
2022-11-13T00:28:42.858Z,0.00
2022-11-13T00:29:42.832Z,0.00
2022-11-13T00:30:42.867Z,0.00
2022-11-13T00:31:42.845Z,0.00
2022-11-13T00:32:42.813Z,0.00
2022-11-13T00:34:09.241Z,0.00
2022-11-13T00:34:48.346Z,0.00
2022-11-13T00:35:42.780Z,0.00
2022-11-13T00:36:42.823Z,0.00
2022-11-13T00:37:42.849Z,0.00
2022-11-13T00:38:42.751Z,0.00
2022-11-13T00:39:42.770Z,0.00
2022-11-13T00:40:42.796Z,0.00
2022-11-13T00:41:42.781Z,0.00
2022-11-13T00:42:42.786Z,0.00
2022-11-13T00:43:42.713Z,0.00
2022-11-13T00:44:42.712Z,0.00
2022-11-13T00:45:42.714Z,0.00
2022-11-13T00:46:42.707Z,0.00
2022-11-13T00:47:42.677Z,0.00
2022-11-13T00:48:42.670Z,0.00
2022-11-13T00:49:42.679Z,0.00
2022-11-13T00:50:42.665Z,0.00
2022-11-13T00:51:42.679Z,0.00
2022-11-13T00:52:42.669Z,0.00
2022-11-13T00:53:42.744Z,0.00
2022-11-13T00:54:42.651Z,0.00
2022-11-13T00:55:42.625Z,0.00
2022-11-13T00:56:42.606Z,0.00
2022-11-13T00:57:42.648Z,0.00
2022-11-13T00:58:42.625Z,0.00
2022-11-13T00:59:42.607Z,0.00
2022-11-13T01:00:42.592Z,0.00
2022-11-13T01:01:42.646Z,0.00
2022-11-13T01:02:42.606Z,0.00
2022-11-13T01:03:42.577Z,0.00
2022-11-13T01:04:42.542Z,0.00
2022-11-13T01:05:42.560Z,0.00
2022-11-13T01:06:42.736Z,0.00
2022-11-13T01:07:42.532Z,0.00
2022-11-13T01:08:42.528Z,0.00
2022-11-13T01:09:42.588Z,0.00
2022-11-13T01:10:42.526Z,0.00
2022-11-13T01:11:42.501Z,0.00
2022-11-13T01:12:42.508Z,0.00
2022-11-13T01:13:42.554Z,0.00
2022-11-13T01:14:42.485Z,0.00
2022-11-13T01:15:42.484Z,0.00
2022-11-13T01:16:42.439Z,0.00
2022-11-13T01:17:42.441Z,0.00
2022-11-13T01:18:42.437Z,0.00
2022-11-13T01:19:42.428Z,0.00
2022-11-13T01:20:42.411Z,0.00
2022-11-13T01:21:42.474Z,0.00
2022-11-13T01:22:42.408Z,0.00
2022-11-13T01:23:42.401Z,0.00
2022-11-13T01:24:42.388Z,0.00
2022-11-13T01:25:42.455Z,0.00
2022-11-13T01:26:42.368Z,0.00
2022-11-13T01:27:42.384Z,0.00
2022-11-13T01:28:42.360Z,0.00
2022-11-13T01:29:42.388Z,0.00
2022-11-13T01:30:42.329Z,0.00
2022-11-13T01:31:42.325Z,0.00
2022-11-13T01:32:42.345Z,0.00
2022-11-13T01:33:42.312Z,0.00
2022-11-13T01:34:42.315Z,0.00
2022-11-13T01:35:50.910Z,0.00
2022-11-13T01:36:42.292Z,0.00
2022-11-13T01:37:42.293Z,0.00
2022-11-13T01:38:42.296Z,0.00
2022-11-13T01:39:42.300Z,0.00
2022-11-13T01:40:42.254Z,0.00
2022-11-13T01:41:42.356Z,0.00
2022-11-13T01:42:42.252Z,0.00
2022-11-13T01:43:42.262Z,0.00
2022-11-13T01:44:42.271Z,0.00
2022-11-13T01:45:42.272Z,0.00
2022-11-13T01:46:42.232Z,0.00
2022-11-13T01:47:42.292Z,0.00
2022-11-13T01:48:42.206Z,0.00
2022-11-13T01:49:42.286Z,0.00
2022-11-13T01:50:42.176Z,0.00
2022-11-13T01:51:42.190Z,0.00
2022-11-13T01:52:42.163Z,0.00
2022-11-13T01:53:42.197Z,0.00
2022-11-13T01:54:42.143Z,0.00
2022-11-13T01:55:42.144Z,0.00
2022-11-13T01:56:42.224Z,0.00
2022-11-13T01:57:42.230Z,0.00
2022-11-13T01:58:42.121Z,0.00
2022-11-13T01:59:42.160Z,0.00
2022-11-13T02:00:42.112Z,0.00
2022-11-13T02:01:42.181Z,0.00
2022-11-13T02:02:42.173Z,0.00
2022-11-13T02:03:42.110Z,0.00
2022-11-13T02:04:42.116Z,0.00
2022-11-13T02:05:42.064Z,0.00
2022-11-13T02:06:42.135Z,0.00
2022-11-13T02:07:42.061Z,0.00
2022-11-13T02:08:42.065Z,0.00
2022-11-13T02:09:42.038Z,0.00
2022-11-13T02:10:42.052Z,0.00
2022-11-13T02:11:42.121Z,0.00
2022-11-13T02:12:42.040Z,0.00
2022-11-13T02:13:42.087Z,0.00
2022-11-13T02:14:42.127Z,0.00
2022-11-13T02:15:41.990Z,0.00
2022-11-13T02:16:41.975Z,0.00
2022-11-13T02:17:42.004Z,0.00
2022-11-13T02:18:41.965Z,0.00
2022-11-13T02:19:41.956Z,0.00
2022-11-13T02:20:41.991Z,0.00
2022-11-13T02:21:41.941Z,0.00
2022-11-13T02:22:41.923Z,0.00
2022-11-13T02:23:41.971Z,0.00
2022-11-13T02:24:45.001Z,0.00
2022-11-13T02:25:41.918Z,0.00
2022-11-13T02:26:41.904Z,0.00
2022-11-13T02:27:41.887Z,0.00
2022-11-13T02:28:41.945Z,0.00
2022-11-13T02:29:41.955Z,0.00
2022-11-13T02:30:41.875Z,0.00
2022-11-13T02:31:41.870Z,0.00
2022-11-13T02:32:41.855Z,0.00
2022-11-13T02:33:41.845Z,0.00
2022-11-13T02:34:41.860Z,0.00
2022-11-13T02:35:41.842Z,0.00
2022-11-13T02:36:41.825Z,0.00
2022-11-13T02:37:41.914Z,0.00
2022-11-13T02:38:41.804Z,0.00
2022-11-13T02:39:41.820Z,0.00
2022-11-13T02:40:41.791Z,0.00
2022-11-13T02:41:41.776Z,0.00
2022-11-13T02:42:41.768Z,0.00
2022-11-13T02:43:41.778Z,0.00
2022-11-13T02:44:41.752Z,0.00
2022-11-13T02:45:41.850Z,0.00
2022-11-13T02:46:41.744Z,0.00
2022-11-13T02:47:41.747Z,0.00
2022-11-13T02:48:41.736Z,0.00
2022-11-13T02:49:41.747Z,0.00
2022-11-13T02:50:41.721Z,0.00
2022-11-13T02:51:41.745Z,0.00
2022-11-13T02:52:41.743Z,0.00
2022-11-13T02:53:41.681Z,0.00
2022-11-13T02:54:41.693Z,0.00
2022-11-13T02:55:41.683Z,0.00
2022-11-13T02:56:41.729Z,0.00
2022-11-13T02:57:41.678Z,0.00
2022-11-13T02:58:41.650Z,0.00
2022-11-13T02:59:41.682Z,0.00
2022-11-13T03:00:41.639Z,0.00
2022-11-13T03:01:41.739Z,0.00
2022-11-13T03:02:41.630Z,0.00
2022-11-13T03:03:56.943Z,0.00
2022-11-13T03:05:10.945Z,0.00
2022-11-13T03:05:42.576Z,0.00
2022-11-13T03:06:41.631Z,0.00
2022-11-13T03:07:41.578Z,0.00
2022-11-13T03:08:41.577Z,0.00
2022-11-13T03:09:41.551Z,0.00
2022-11-13T03:10:41.546Z,0.00
2022-11-13T03:11:41.543Z,0.00
2022-11-13T03:12:41.538Z,0.00
2022-11-13T03:13:41.586Z,0.00
2022-11-13T03:14:41.518Z,0.00
2022-11-13T03:15:41.508Z,0.00
2022-11-13T03:16:41.501Z,0.00
2022-11-13T03:17:41.570Z,0.00
2022-11-13T03:18:41.477Z,0.00
2022-11-13T03:19:41.503Z,0.00
2022-11-13T03:20:41.472Z,0.00
2022-11-13T03:21:41.461Z,0.00
2022-11-13T03:22:41.455Z,0.00
2022-11-13T03:23:41.458Z,0.00
2022-11-13T03:24:41.455Z,0.00
2022-11-13T03:25:41.444Z,0.00
2022-11-13T03:26:41.437Z,0.00
2022-11-13T03:27:41.420Z,0.00
2022-11-13T03:28:41.415Z,0.00
2022-11-13T03:29:41.407Z,0.00
2022-11-13T03:30:41.411Z,0.00
2022-11-13T03:31:41.395Z,0.00
2022-11-13T03:32:41.397Z,0.00
2022-11-13T03:33:41.454Z,0.00
2022-11-13T03:34:41.363Z,0.00
2022-11-13T03:35:46.507Z,0.00
2022-11-13T03:36:42.344Z,0.00
2022-11-13T03:37:41.507Z,0.00
2022-11-13T03:38:41.324Z,0.00
2022-11-13T03:39:41.345Z,0.00
2022-11-13T03:40:41.328Z,0.00
2022-11-13T03:41:41.302Z,0.00
2022-11-13T03:42:41.304Z,0.00
2022-11-13T03:43:41.293Z,0.00
2022-11-13T03:44:41.284Z,0.00
2022-11-13T03:45:41.268Z,0.00
2022-11-13T03:46:41.287Z,0.00
2022-11-13T03:47:41.256Z,0.00
2022-11-13T03:48:41.256Z,0.00
2022-11-13T03:49:41.317Z,0.00
2022-11-13T03:50:45.346Z,0.00
2022-11-13T03:51:41.231Z,0.00
2022-11-13T03:52:41.231Z,0.00
2022-11-13T03:53:41.207Z,0.00
2022-11-13T03:54:41.200Z,0.00
2022-11-13T03:55:41.197Z,0.00
2022-11-13T03:56:41.211Z,0.00
2022-11-13T03:57:41.196Z,0.00
2022-11-13T03:58:43.715Z,0.00
2022-11-13T03:59:42.155Z,0.00
2022-11-13T04:00:41.171Z,0.00
2022-11-13T04:01:41.192Z,0.00
2022-11-13T04:02:41.141Z,0.00
2022-11-13T04:03:41.184Z,0.00
2022-11-13T04:04:41.160Z,0.00
2022-11-13T04:05:41.198Z,0.00
2022-11-13T04:06:41.116Z,0.00
2022-11-13T04:07:41.105Z,0.00
2022-11-13T04:08:41.086Z,0.00
2022-11-13T04:09:41.100Z,0.00
2022-11-13T04:10:41.087Z,0.00
2022-11-13T04:11:41.060Z,0.00
2022-11-13T04:12:41.058Z,0.00
2022-11-13T04:13:41.040Z,0.00
2022-11-13T04:14:41.053Z,0.00
2022-11-13T04:15:41.062Z,0.00
2022-11-13T04:16:41.084Z,0.00
2022-11-13T04:17:41.012Z,0.00
2022-11-13T04:18:40.991Z,0.00
2022-11-13T04:19:41.002Z,0.00
2022-11-13T04:20:41.004Z,0.00
2022-11-13T04:21:41.060Z,0.00
2022-11-13T04:22:40.996Z,0.00
2022-11-13T04:23:40.965Z,0.00
2022-11-13T04:24:40.955Z,0.00
2022-11-13T04:25:40.961Z,0.00
2022-11-13T04:26:40.995Z,0.00
2022-11-13T04:27:40.936Z,0.00
2022-11-13T04:28:40.937Z,0.00
2022-11-13T04:29:40.914Z,0.00
2022-11-13T04:30:40.907Z,0.00
2022-11-13T04:31:40.894Z,0.00
2022-11-13T04:32:40.933Z,0.00
2022-11-13T04:33:40.871Z,0.00
2022-11-13T04:34:40.867Z,0.00
2022-11-13T04:35:40.892Z,0.00
2022-11-13T04:36:40.856Z,0.00
2022-11-13T04:37:40.967Z,0.00
2022-11-13T04:38:40.843Z,0.00
2022-11-13T04:39:40.854Z,0.00
2022-11-13T04:40:40.821Z,0.00
2022-11-13T04:41:40.832Z,0.00
2022-11-13T04:42:40.827Z,0.00
2022-11-13T04:43:40.798Z,0.00
2022-11-13T04:44:40.789Z,0.00
2022-11-13T04:45:40.779Z,0.00
2022-11-13T04:46:40.801Z,0.00
2022-11-13T04:47:40.782Z,0.00
2022-11-13T04:48:40.812Z,0.00
2022-11-13T04:49:40.773Z,0.00
2022-11-13T04:50:40.736Z,0.00
2022-11-13T04:51:40.741Z,0.00
2022-11-13T04:52:40.725Z,0.00
2022-11-13T04:53:40.796Z,0.00
2022-11-13T04:54:40.737Z,0.00
2022-11-13T04:55:40.703Z,0.00
2022-11-13T04:56:40.742Z,0.00
2022-11-13T04:57:40.717Z,0.00
2022-11-13T05:01:34.893Z,0.00
2022-11-13T05:02:34.742Z,0.00
2022-11-13T05:03:34.734Z,0.00
2022-11-13T05:04:34.722Z,0.00
2022-11-13T05:05:34.711Z,0.00
2022-11-13T05:06:34.702Z,0.00
2022-11-13T05:07:34.743Z,0.00
2022-11-13T05:08:34.700Z,0.00
2022-11-13T05:09:34.764Z,0.00
2022-11-13T05:10:34.689Z,0.00
2022-11-13T05:11:34.680Z,0.00
2022-11-13T05:12:34.660Z,0.00
2022-11-13T05:13:34.669Z,0.00
2022-11-13T05:14:34.636Z,0.00
2022-11-13T05:15:34.634Z,0.00
2022-11-13T05:16:34.637Z,0.00
2022-11-13T05:17:34.627Z,0.00
2022-11-13T05:18:34.600Z,0.00
2022-11-13T05:19:34.675Z,0.00
2022-11-13T05:20:34.608Z,0.00
2022-11-13T05:21:34.578Z,0.00
2022-11-13T05:22:34.567Z,0.00
2022-11-13T05:23:34.680Z,0.00
2022-11-13T05:24:34.549Z,0.00
2022-11-13T05:25:34.616Z,0.00
2022-11-13T05:26:34.610Z,0.00
2022-11-13T05:27:34.558Z,0.00
2022-11-13T05:28:34.539Z,0.00
2022-11-13T05:29:34.556Z,0.00
2022-11-13T05:30:34.499Z,0.00
2022-11-13T05:31:35.240Z,0.00
2022-11-13T05:32:34.501Z,0.00
2022-11-13T05:33:34.520Z,0.00
2022-11-13T05:34:34.506Z,0.00
2022-11-13T05:35:34.472Z,0.00
2022-11-13T05:36:34.443Z,0.00
2022-11-13T05:37:34.439Z,0.00
2022-11-13T05:38:34.453Z,0.00
2022-11-13T05:39:34.446Z,0.00
2022-11-13T05:40:34.463Z,0.00
2022-11-13T05:41:34.496Z,0.00
2022-11-13T05:42:34.401Z,0.00
2022-11-13T05:43:34.415Z,0.00
2022-11-13T05:44:34.412Z,0.00
2022-11-13T05:45:34.410Z,0.00
2022-11-13T05:46:34.404Z,0.00
2022-11-13T05:47:34.401Z,0.00
2022-11-13T05:48:34.543Z,0.00
2022-11-13T05:49:34.358Z,0.00
2022-11-13T05:50:34.396Z,0.00
2022-11-13T05:51:34.336Z,0.00
2022-11-13T05:52:34.320Z,0.00
2022-11-13T05:53:34.366Z,0.00
2022-11-13T05:54:34.351Z,0.00
2022-11-13T05:55:34.311Z,0.00
2022-11-13T05:56:34.329Z,0.00
2022-11-13T05:57:34.405Z,0.00
2022-11-13T05:58:34.283Z,0.00
2022-11-13T05:59:34.301Z,0.00
2022-11-13T06:00:34.277Z,0.00
2022-11-13T06:01:34.297Z,0.00
2022-11-13T06:02:34.273Z,0.00
2022-11-13T06:03:34.314Z,0.00
2022-11-13T06:04:34.275Z,0.00
2022-11-13T06:05:34.236Z,0.00
2022-11-13T06:06:34.231Z,0.00
2022-11-13T06:07:34.219Z,0.00
2022-11-13T06:08:34.206Z,0.00
2022-11-13T06:09:34.219Z,0.00
2022-11-13T06:10:34.188Z,0.00
2022-11-13T06:11:34.174Z,0.00
2022-11-13T06:12:34.189Z,0.00
2022-11-13T06:13:34.174Z,0.00
2022-11-13T06:14:34.171Z,0.00
2022-11-13T06:15:34.148Z,0.00
2022-11-13T06:16:34.133Z,0.00
2022-11-13T06:17:34.170Z,0.00
2022-11-13T06:18:34.387Z,0.00
2022-11-13T06:19:34.177Z,0.00
2022-11-13T06:20:34.101Z,0.00
2022-11-13T06:21:34.091Z,0.00
2022-11-13T06:22:34.113Z,0.00
2022-11-13T06:23:34.079Z,0.00
2022-11-13T06:24:34.058Z,0.00
2022-11-13T06:25:34.112Z,0.00
2022-11-13T06:26:34.043Z,0.00
2022-11-13T06:27:34.035Z,0.00
2022-11-13T06:28:34.033Z,0.00
2022-11-13T06:29:34.132Z,0.00
2022-11-13T06:30:34.074Z,0.00
2022-11-13T06:31:34.019Z,0.00
2022-11-13T06:32:33.989Z,0.00
2022-11-13T06:33:34.030Z,0.00
2022-11-13T06:34:34.002Z,5.62
2022-11-13T06:35:34.027Z,5.62
2022-11-13T06:36:34.001Z,5.62
2022-11-13T06:37:34.925Z,5.62
2022-11-13T06:38:34.008Z,5.62
2022-11-13T06:39:33.935Z,5.62
2022-11-13T06:40:33.949Z,5.62
2022-11-13T06:41:33.953Z,5.62
2022-11-13T06:42:34.006Z,5.62
2022-11-13T06:43:33.937Z,5.62
2022-11-13T06:44:33.897Z,5.62
2022-11-13T06:45:33.994Z,5.62
2022-11-13T06:46:33.939Z,11.25
2022-11-13T06:47:34.000Z,11.25
2022-11-13T06:48:33.859Z,11.25
2022-11-13T06:49:33.857Z,11.25
2022-11-13T06:50:33.869Z,11.25
2022-11-13T06:51:33.842Z,11.25
2022-11-13T06:52:33.919Z,11.25
2022-11-13T06:53:33.826Z,11.25
2022-11-13T06:54:33.846Z,16.88
2022-11-13T06:55:33.810Z,16.88
2022-11-13T06:56:33.880Z,16.88
2022-11-13T06:57:33.830Z,16.88
2022-11-13T06:58:33.820Z,16.88
2022-11-13T06:59:33.810Z,16.88
2022-11-13T07:00:37.017Z,16.88
2022-11-13T07:01:33.929Z,22.50
2022-11-13T07:02:33.800Z,22.50
2022-11-13T07:03:33.772Z,22.50
2022-11-13T07:04:33.732Z,22.50
2022-11-13T07:05:33.756Z,22.50
2022-11-13T07:06:39.041Z,22.50
2022-11-13T07:07:34.718Z,22.50
2022-11-13T07:08:33.763Z,22.50
2022-11-13T07:09:33.718Z,28.12
2022-11-13T07:10:33.720Z,28.12
2022-11-13T07:11:33.702Z,28.12
2022-11-13T07:12:33.688Z,28.12
2022-11-13T07:13:33.713Z,33.75
2022-11-13T07:14:33.709Z,33.75
2022-11-13T07:15:33.675Z,33.75
2022-11-13T07:16:56.270Z,33.75
2022-11-13T07:17:34.726Z,33.75
2022-11-13T07:18:33.665Z,39.38
2022-11-13T07:19:33.651Z,39.38
2022-11-13T07:20:33.647Z,45.00
2022-11-13T07:21:33.622Z,45.00
2022-11-13T07:22:33.609Z,50.62
2022-11-13T07:23:33.605Z,56.25
2022-11-13T07:24:33.630Z,50.62
2022-11-13T07:25:33.589Z,56.25
2022-11-13T07:26:33.598Z,56.25
2022-11-13T07:27:33.570Z,56.25
2022-11-13T07:28:33.566Z,56.25
2022-11-13T07:29:33.543Z,56.25
2022-11-13T07:30:33.544Z,61.88
2022-11-13T07:31:33.562Z,61.88
2022-11-13T07:32:33.542Z,61.88
2022-11-13T07:33:33.599Z,61.88
2022-11-13T07:34:33.507Z,67.50
2022-11-13T07:35:33.496Z,67.50
2022-11-13T07:36:33.487Z,67.50
2022-11-13T07:37:33.506Z,73.12
2022-11-13T07:38:33.478Z,73.12
2022-11-13T07:39:33.475Z,73.12
2022-11-13T07:40:33.464Z,73.12
2022-11-13T07:41:33.451Z,73.12
2022-11-13T07:42:33.467Z,78.75
2022-11-13T07:43:33.442Z,73.12
2022-11-13T07:44:53.655Z,73.12
2022-11-13T07:45:34.429Z,73.12
2022-11-13T07:46:33.448Z,78.75
2022-11-13T07:47:33.447Z,84.38
2022-11-13T07:48:33.455Z,84.38
2022-11-13T07:49:33.486Z,84.38
2022-11-13T07:50:33.408Z,90.00
2022-11-13T07:51:33.400Z,90.00
2022-11-13T07:52:33.398Z,90.00
2022-11-13T07:53:33.356Z,90.00
2022-11-13T07:54:33.482Z,90.00
2022-11-13T07:55:33.348Z,90.00
2022-11-13T07:56:33.339Z,101.25
2022-11-13T07:57:33.445Z,101.25
2022-11-13T07:58:33.401Z,112.50
2022-11-13T07:59:33.310Z,112.50
2022-11-13T08:00:33.342Z,112.50
2022-11-13T08:01:33.337Z,106.88
2022-11-13T08:02:33.400Z,106.88
2022-11-13T08:03:33.283Z,106.88
2022-11-13T08:04:33.337Z,106.88
2022-11-13T08:05:33.348Z,106.88
2022-11-13T08:06:33.288Z,112.50
2022-11-13T08:07:33.247Z,118.12
2022-11-13T08:08:33.243Z,129.38
2022-11-13T08:09:33.247Z,135.00
2022-11-13T08:10:33.254Z,135.00
2022-11-13T08:11:33.220Z,146.25
2022-11-13T08:12:33.366Z,151.88
2022-11-13T08:13:33.211Z,163.12
2022-11-13T08:14:33.275Z,163.12
2022-11-13T08:15:33.226Z,151.88
2022-11-13T08:16:33.187Z,157.50
2022-11-13T08:17:33.288Z,185.62
2022-11-13T08:18:33.169Z,208.12
2022-11-13T08:19:33.155Z,202.50
2022-11-13T08:20:33.222Z,180.00
2022-11-13T08:21:33.240Z,174.38
2022-11-13T08:22:33.127Z,213.75
2022-11-13T08:23:33.117Z,213.75
2022-11-13T08:24:33.137Z,202.50
2022-11-13T08:25:33.100Z,219.38
2022-11-13T08:26:33.130Z,225.00
2022-11-13T08:27:33.130Z,213.75
2022-11-13T08:28:33.100Z,185.62
2022-11-13T08:29:33.075Z,157.50
2022-11-13T08:30:33.074Z,151.88
2022-11-13T08:31:33.090Z,140.62
2022-11-13T08:32:33.064Z,157.50
2022-11-13T08:33:34.728Z,180.00
2022-11-13T08:34:33.044Z,191.25
2022-11-13T08:35:33.213Z,196.88
2022-11-13T08:36:33.022Z,196.88
2022-11-13T08:37:33.425Z,202.50
2022-11-13T08:38:33.005Z,191.25
2022-11-13T08:39:33.262Z,180.00
2022-11-13T08:40:33.011Z,180.00
2022-11-13T08:41:33.721Z,191.25
2022-11-13T08:42:33.000Z,219.38
2022-11-13T08:43:32.981Z,225.00
2022-11-13T08:44:32.957Z,225.00
2022-11-13T08:45:33.181Z,208.12
2022-11-13T08:46:32.941Z,225.00
2022-11-13T08:47:32.942Z,230.62
2022-11-13T08:48:32.948Z,225.00
2022-11-13T08:49:32.905Z,230.62
2022-11-13T08:50:32.946Z,225.00
2022-11-13T08:51:32.969Z,247.50
2022-11-13T08:52:32.958Z,275.62
2022-11-13T08:53:32.968Z,309.38
2022-11-13T08:54:32.888Z,309.38
2022-11-13T08:55:33.320Z,320.62
2022-11-13T08:56:33.201Z,337.50
2022-11-13T08:57:33.799Z,331.88
2022-11-13T08:58:32.935Z,348.75
2022-11-13T08:59:32.863Z,438.75
2022-11-13T09:00:32.842Z,421.88
2022-11-13T09:01:32.847Z,444.38
2022-11-13T09:02:32.816Z,433.12
2022-11-13T09:03:32.957Z,500.62
2022-11-13T09:04:32.812Z,573.75
2022-11-13T09:05:32.852Z,421.88
2022-11-13T09:06:32.798Z,371.25
2022-11-13T09:07:32.844Z,348.75
2022-11-13T09:08:32.807Z,393.75
2022-11-13T09:09:32.860Z,393.75
2022-11-13T09:10:32.763Z,421.88
2022-11-13T09:11:32.771Z,461.25
2022-11-13T09:12:32.791Z,472.50
2022-11-13T09:13:32.744Z,534.38
2022-11-13T09:14:32.792Z,540.00
2022-11-13T09:15:32.762Z,495.00
2022-11-13T09:16:32.711Z,545.62
2022-11-13T09:17:32.697Z,793.12
2022-11-13T09:18:32.709Z,849.38
2022-11-13T09:19:32.685Z,928.12
2022-11-13T09:20:32.720Z,742.50
2022-11-13T09:21:32.695Z,1575.00
2022-11-13T09:22:32.661Z,1288.12
2022-11-13T09:23:32.716Z,1158.75
2022-11-13T09:24:32.676Z,1074.38
2022-11-13T09:25:37.016Z,973.12
2022-11-13T09:26:33.683Z,1681.88
2022-11-13T09:27:32.652Z,1175.62
2022-11-13T09:28:32.649Z,1113.75
2022-11-13T09:29:32.646Z,1096.88
2022-11-13T09:30:32.607Z,1186.88
2022-11-13T09:31:32.599Z,1119.38
2022-11-13T09:32:32.865Z,1029.38
2022-11-13T09:33:32.606Z,984.38
2022-11-13T09:34:32.590Z,1243.12
2022-11-13T09:35:32.569Z,1012.50
2022-11-13T09:36:32.561Z,1113.75
2022-11-13T09:37:32.651Z,1141.88
2022-11-13T09:38:32.680Z,1321.88
2022-11-13T09:39:32.537Z,1102.50
2022-11-13T09:40:32.528Z,1732.50
2022-11-13T09:41:32.597Z,2272.50
2022-11-13T09:42:32.510Z,2233.12
2022-11-13T09:43:32.532Z,2053.12
2022-11-13T09:44:32.497Z,2193.75
2022-11-13T09:45:32.514Z,2171.25
2022-11-13T09:46:32.469Z,2970.00
2022-11-13T09:47:32.454Z,3048.75
2022-11-13T09:48:32.654Z,2992.50
2022-11-13T09:49:32.456Z,2823.75
2022-11-13T09:50:32.438Z,2857.50
2022-11-13T09:51:32.429Z,2851.88
2022-11-13T09:52:32.466Z,2632.50
2022-11-13T09:53:32.428Z,2801.25
2022-11-13T09:54:33.422Z,2823.75
2022-11-13T09:55:32.405Z,2941.88
2022-11-13T09:56:32.384Z,3082.50
2022-11-13T09:57:32.455Z,3234.38
2022-11-13T09:58:32.423Z,3206.25
2022-11-13T09:59:32.579Z,3076.88
2022-11-13T10:00:32.386Z,3026.25
2022-11-13T10:01:32.442Z,3127.50
2022-11-13T10:02:32.328Z,2958.75
2022-11-13T10:03:59.332Z,2896.88
2022-11-13T10:04:33.310Z,3285.00
2022-11-13T10:05:32.322Z,3397.50
2022-11-13T10:06:32.515Z,3195.00
2022-11-13T10:07:32.304Z,3268.12
2022-11-13T10:08:32.297Z,3346.88
2022-11-13T10:09:32.281Z,3043.12
2022-11-13T10:10:32.269Z,2891.25
2022-11-13T10:11:32.298Z,3268.12
2022-11-13T10:12:32.250Z,3279.38
2022-11-13T10:13:32.318Z,2818.12
2022-11-13T10:14:32.259Z,3088.12
2022-11-13T10:15:32.300Z,3099.38
2022-11-13T10:16:32.284Z,3099.38
2022-11-13T10:17:32.204Z,3352.50
2022-11-13T10:18:32.280Z,3341.25
2022-11-13T10:19:32.202Z,3414.38
2022-11-13T10:20:32.208Z,3611.25
2022-11-13T10:21:32.180Z,3166.88
2022-11-13T10:22:33.884Z,3065.62
2022-11-13T10:23:32.470Z,3301.88
2022-11-13T10:24:32.191Z,3459.38
2022-11-13T10:25:32.156Z,3628.12
2022-11-13T10:26:32.171Z,3335.62
2022-11-13T10:27:32.213Z,3375.00
2022-11-13T10:29:33.278Z,2880.00
2022-11-13T10:30:32.104Z,2936.25
2022-11-13T10:31:32.129Z,3043.12
2022-11-13T10:32:32.259Z,3133.12
2022-11-13T10:33:32.142Z,3245.62
2022-11-13T10:34:32.095Z,3448.12
2022-11-13T10:35:32.119Z,3054.38
2022-11-13T10:36:32.079Z,2750.62
2022-11-13T10:37:32.139Z,2908.12
2022-11-13T10:38:32.156Z,3082.50
2022-11-13T10:39:32.042Z,2975.62
2022-11-13T10:40:40.066Z,2908.12
2022-11-13T10:41:32.022Z,3009.38
2022-11-13T10:42:32.039Z,2913.75
2022-11-13T10:43:32.370Z,2705.62
2022-11-13T10:44:32.009Z,2621.25
2022-11-13T10:45:32.127Z,2688.75
2022-11-13T10:46:31.994Z,2784.38
2022-11-13T10:48:02.128Z,2587.50
2022-11-13T10:48:33.002Z,2750.62
2022-11-13T10:49:31.969Z,2795.62
2022-11-13T10:50:31.998Z,2480.62
2022-11-13T10:51:31.955Z,2013.75
2022-11-13T10:52:31.966Z,1186.88
2022-11-13T10:53:32.203Z,911.25
2022-11-13T10:54:31.955Z,855.00
2022-11-13T10:55:31.921Z,832.50
2022-11-13T10:56:31.923Z,821.25
2022-11-13T10:57:31.900Z,810.00
2022-11-13T10:58:32.223Z,798.75
2022-11-13T10:59:31.914Z,793.12
2022-11-13T11:00:31.879Z,793.12
2022-11-13T11:01:32.083Z,781.88
2022-11-13T11:02:31.859Z,770.62
2022-11-13T11:03:31.871Z,770.62
2022-11-13T11:04:31.843Z,765.00
2022-11-13T11:05:31.879Z,765.00
2022-11-13T11:06:48.961Z,759.38
2022-11-13T11:07:32.849Z,753.75
2022-11-13T11:08:32.215Z,748.12
2022-11-13T11:09:31.803Z,748.12
2022-11-13T11:10:31.802Z,742.50
2022-11-13T11:11:31.800Z,742.50
2022-11-13T11:12:31.792Z,736.88
2022-11-13T11:13:31.844Z,736.88
2022-11-13T11:14:31.762Z,736.88
2022-11-13T11:15:31.752Z,742.50
2022-11-13T11:16:31.770Z,731.25
2022-11-13T11:17:31.825Z,736.88
2022-11-13T11:18:32.104Z,731.25
2022-11-13T11:19:31.727Z,731.25
2022-11-13T11:20:31.744Z,731.25
2022-11-13T11:21:31.783Z,725.62
2022-11-13T11:22:31.715Z,725.62
2022-11-13T11:23:31.694Z,725.62
2022-11-13T11:24:31.966Z,725.62
2022-11-13T11:25:31.673Z,725.62
2022-11-13T11:26:31.693Z,720.00
2022-11-13T11:27:31.660Z,725.62
2022-11-13T11:28:32.070Z,720.00
2022-11-13T11:29:31.661Z,720.00
2022-11-13T11:30:31.655Z,720.00
2022-11-13T11:31:31.631Z,720.00
2022-11-13T11:32:31.628Z,720.00
2022-11-13T11:33:31.698Z,720.00
2022-11-13T11:34:31.652Z,720.00
2022-11-13T11:35:31.614Z,725.62
2022-11-13T11:36:31.603Z,720.00
2022-11-13T11:37:31.624Z,720.00
2022-11-13T11:38:31.905Z,720.00
2022-11-13T11:39:31.572Z,725.62
2022-11-13T11:40:31.561Z,720.00
2022-11-13T11:41:31.565Z,731.25
2022-11-13T11:42:31.541Z,725.62
2022-11-13T11:43:31.540Z,731.25
2022-11-13T11:44:31.575Z,731.25
2022-11-13T11:45:31.535Z,736.88
2022-11-13T11:46:31.541Z,736.88
2022-11-13T11:47:31.506Z,742.50
2022-11-13T11:48:32.014Z,748.12
2022-11-13T11:49:31.566Z,753.75
2022-11-13T11:50:31.483Z,759.38
2022-11-13T11:51:31.583Z,759.38
2022-11-13T11:52:31.505Z,765.00
2022-11-13T11:53:31.544Z,770.62
2022-11-13T11:54:31.450Z,781.88
2022-11-13T11:55:31.444Z,793.12
2022-11-13T11:56:31.494Z,804.38
2022-11-13T11:57:31.503Z,815.62
2022-11-13T11:58:31.707Z,815.62
2022-11-13T11:59:31.424Z,832.50
2022-11-13T12:00:31.414Z,843.75
2022-11-13T12:01:31.406Z,866.25
2022-11-13T12:02:31.403Z,911.25
2022-11-13T12:03:31.759Z,956.25
2022-11-13T12:04:31.418Z,1012.50
2022-11-13T12:05:31.456Z,1265.62
2022-11-13T12:06:32.077Z,1918.12
2022-11-13T12:07:31.387Z,2368.12
2022-11-13T12:08:31.664Z,2491.88
2022-11-13T12:09:31.349Z,2407.50
2022-11-13T12:10:31.882Z,2368.12
2022-11-13T12:11:31.502Z,2626.88
2022-11-13T12:12:31.320Z,2458.12
2022-11-13T12:13:31.312Z,2452.50
2022-11-13T12:14:31.451Z,2435.62
2022-11-13T12:15:31.319Z,2351.25
2022-11-13T12:16:31.312Z,2306.25
2022-11-13T12:17:31.295Z,2390.62
2022-11-13T12:18:31.456Z,2435.62
2022-11-13T12:19:31.274Z,2486.25
2022-11-13T12:20:31.586Z,2289.38
2022-11-13T12:21:31.349Z,2216.25
2022-11-13T12:22:31.268Z,2407.50
2022-11-13T12:23:31.253Z,2396.25
2022-11-13T12:24:31.216Z,2413.12
2022-11-13T12:25:31.204Z,2418.75
2022-11-13T12:26:31.224Z,2340.00
2022-11-13T12:27:31.207Z,2362.50
2022-11-13T12:28:31.508Z,2570.62
2022-11-13T12:29:31.207Z,2334.38
2022-11-13T12:30:31.175Z,2323.12
2022-11-13T12:31:31.167Z,2553.75
2022-11-13T12:32:31.164Z,2413.12
2022-11-13T12:33:31.204Z,2469.38
2022-11-13T12:34:31.201Z,2407.50
2022-11-13T12:35:31.139Z,2261.25
2022-11-13T12:36:31.122Z,2311.88
2022-11-13T12:37:31.210Z,2311.88
2022-11-13T12:38:31.385Z,2323.12
2022-11-13T12:39:31.121Z,2317.50
2022-11-13T12:40:31.115Z,2171.25
2022-11-13T12:41:31.094Z,2081.25
2022-11-13T12:42:31.081Z,2030.62
2022-11-13T12:43:31.077Z,2373.75
2022-11-13T12:44:31.066Z,2435.62
2022-11-13T12:45:31.082Z,2278.12
2022-11-13T12:46:31.067Z,2115.00
2022-11-13T12:47:31.048Z,1957.50
2022-11-13T12:48:31.322Z,2036.25
2022-11-13T12:49:31.026Z,2126.25
2022-11-13T12:50:32.805Z,2165.62
2022-11-13T12:51:31.018Z,2143.12
2022-11-13T12:52:31.002Z,2131.88
2022-11-13T12:53:31.079Z,2126.25
2022-11-13T12:54:30.989Z,1906.88
2022-11-13T12:55:31.040Z,1935.00